Time;durP1;ratioP1;P1;durP2;ratioP2;P2;SDS_P1;SDS_P2;PMS_P1;PMS_P2;Temp;Humidity;BMP_temperature;BMP_pressure;BME280_temperature;BME280_humidity;BME280_pressure;Samples;Min_cycle;Max_cycle;Signal;HPM_P1;HPM_P2
2023/02/01 00:02:08;;;;;;;0.10;0.10;;;;;;;8.50;58.34;102082.19;5019332;28;20049;-79
2023/02/01 00:04:35;;;;;;;0.10;0.10;;;;;;;8.52;58.18;102080.47;5030883;28;20110;-81
2023/02/01 00:07:01;;;;;;;0.10;0.10;;;;;;;8.51;57.74;102083.97;5023062;28;20076;-80
2023/02/01 00:09:27;;;;;;;0.10;0.10;;;;;;;8.58;58.02;102085.81;5033968;28;20021;-81
2023/02/01 00:11:54;;;;;;;0.10;0.10;;;;;;;8.61;57.26;102093.75;5032040;28;20055;-79
2023/02/01 00:14:20;;;;;;;3.20;2.65;;;;;;;8.66;57.57;102084.13;5030424;28;20029;-79
2023/02/01 00:16:46;;;;;;;0.10;0.10;;;;;;;8.59;57.51;102087.56;5034016;28;20108;-81
2023/02/01 00:19:14;;;;;;;0.10;0.10;;;;;;;8.59;57.07;102082.28;5032914;28;20029;-82
2023/02/01 00:21:41;;;;;;;0.55;0.55;;;;;;;8.53;57.13;102077.81;5033166;28;20025;-79
2023/02/01 00:24:10;;;;;;;0.10;0.10;;;;;;;8.50;57.45;102080.47;5033212;28;20512;-79
2023/02/01 00:26:38;;;;;;;0.30;0.30;;;;;;;8.60;56.64;102088.44;5033799;28;20037;-80
2023/02/01 00:29:08;;;;;;;0.10;0.10;;;;;;;8.63;56.82;102093.78;5033763;28;20032;-80
2023/02/01 00:31:35;;;;;;;0.10;0.10;;;;;;;8.68;56.97;102090.28;5030050;28;20381;-78
2023/02/01 00:34:01;;;;;;;0.10;0.10;;;;;;;8.64;56.43;102084.97;5032205;28;20034;-78
2023/02/01 00:36:28;;;;;;;0.10;0.10;;;;;;;8.57;57.00;102084.03;5030633;28;20034;-81
2023/02/01 00:38:54;;;;;;;0.20;0.20;;;;;;;8.54;56.94;102094.56;5031785;28;20132;-78
2023/02/01 00:41:21;;;;;;;0.10;0.10;;;;;;;8.54;56.83;102090.16;5033905;28;20032;-78
2023/02/01 00:43:48;;;;;;;0.20;0.20;;;;;;;8.67;56.60;102080.59;5038007;28;20057;-79
2023/02/01 00:46:16;;;;;;;0.10;0.10;;;;;;;8.63;56.64;102078.78;5033316;28;20033;-80
2023/02/01 00:48:42;;;;;;;0.13;0.13;;;;;;;8.58;56.01;102096.38;5032620;28;20486;-79
2023/02/01 00:51:12;;;;;;;0.20;0.20;;;;;;;8.68;56.34;102095.56;5032501;28;20033;-79
2023/02/01 00:53:38;;;;;;;0.10;0.10;;;;;;;8.66;56.01;102089.41;5029502;28;20036;-79
2023/02/01 00:56:05;;;;;;;0.38;0.38;;;;;;;8.70;55.24;102087.66;5027496;28;20037;-80
2023/02/01 00:58:32;;;;;;;0.10;0.10;;;;;;;8.73;55.33;102075.38;5025767;28;20076;-80
2023/02/01 01:01:10;;;;;;;1.23;1.23;;;;;;;8.67;55.28;102056.81;5021016;28;20036;-82
2023/02/01 01:03:40;;;;;;;0.20;0.20;;;;;;;8.70;55.71;102062.13;5025558;28;20069;-78
2023/02/01 01:06:09;;;;;;;1.60;0.47;;;;;;;8.77;55.46;102059.53;5028923;28;20033;-80
2023/02/01 01:08:37;;;;;;;5.38;2.40;;;;;;;8.73;55.35;102061.25;5033523;28;20074;-79
2023/02/01 01:11:07;;;;;;;0.10;0.10;;;;;;;8.74;55.25;102050.69;5032468;28;20496;-79
2023/02/01 01:13:34;;;;;;;0.10;0.10;;;;;;;8.69;55.73;102057.69;5033637;28;20033;-79
2023/02/01 01:16:02;;;;;;;0.10;0.10;;;;;;;8.67;55.69;102064.75;5037847;28;20070;-80
2023/02/01 01:18:29;;;;;;;0.10;0.10;;;;;;;8.63;56.41;102065.59;5034610;28;20034;-80
2023/02/01 01:20:56;;;;;;;0.65;0.55;;;;;;;8.66;56.45;102057.69;5034554;28;20071;-79
2023/02/01 01:23:22;;;;;;;0.10;0.10;;;;;;;8.61;56.64;102054.13;5041530;28;20116;-80
2023/02/01 01:25:49;;;;;;;0.20;0.20;;;;;;;8.64;56.71;102059.44;5038221;28;20488;-79
2023/02/01 01:28:15;;;;;;;1.27;1.10;;;;;;;8.61;56.76;102062.06;5035671;28;20057;-81
2023/02/01 01:30:41;;;;;;;0.10;0.10;;;;;;;8.54;57.36;102050.53;5038481;28;20037;-83
2023/02/01 01:33:07;;;;;;;0.10;0.10;;;;;;;8.62;56.89;102066.44;5037011;28;20068;-81
2023/02/01 01:35:34;;;;;;;0.10;0.10;;;;;;;8.68;57.56;102076.19;5036766;28;20033;-81
2023/02/01 01:38:00;;;;;;;0.30;0.30;;;;;;;8.65;57.31;102084.97;5037278;28;20025;-80
2023/02/01 01:40:28;;;;;;;0.20;0.20;;;;;;;8.72;57.24;102056.84;5036972;28;20022;-82
2023/02/01 01:42:55;;;;;;;0.10;0.10;;;;;;;8.64;57.33;102053.28;5036491;28;20041;-81
2023/02/01 01:45:26;;;;;;;0.10;0.10;;;;;;;8.69;57.73;102051.53;5033936;28;20452;-81
2023/02/01 01:47:56;;;;;;;2.65;2.45;;;;;;;8.69;57.52;102052.41;5036824;28;20091;-80
2023/02/01 01:50:30;;;;;;;0.10;0.10;;;;;;;8.75;57.88;102056.88;5036243;28;20044;-79
2023/02/01 01:52:58;;;;;;;0.10;0.10;;;;;;;8.77;57.71;102076.25;5035835;28;20480;-80
2023/02/01 01:55:27;;;;;;;3.10;1.05;;;;;;;8.84;58.08;102062.22;5036456;28;20030;-80
2023/02/01 01:58:02;;;;;;;0.10;0.10;;;;;;;8.96;57.96;102049.94;5036332;28;20025;-80
2023/02/01 02:00:28;;;;;;;0.10;0.10;;;;;;;8.93;57.61;102055.22;5036256;28;20503;-78
2023/02/01 02:03:03;;;;;;;0.20;0.20;;;;;;;8.85;58.28;102061.34;5032247;28;20037;-78
2023/02/01 02:05:30;;;;;;;0.10;0.10;;;;;;;8.90;57.72;102056.09;5036931;28;20059;-78
2023/02/01 02:08:00;;;;;;;0.10;0.10;;;;;;;8.98;57.74;102033.22;5035537;28;20036;-81
2023/02/01 02:10:59;;;;;;;0.10;0.10;;;;;;;9.03;57.44;102049.13;5036636;28;20026;-81
2023/02/01 02:13:14;;;;;;;1.55;1.55;;;;;;;9.11;57.43;102039.47;5026634;28;20114;-79
2023/02/01 02:15:57;;;;;;;0.20;0.20;;;;;;;9.02;57.69;102027.09;5035787;28;20022;-80
2023/02/01 02:21:50;;;;;;;1.95;1.85;;;;;;;9.03;57.69;102031.50;5110904;27;20387;-80
2023/02/01 02:24:56;;;;;;;21.20;1.52;;;;;;;9.14;57.61;102020.09;5086405;28;20425;-81
2023/02/01 02:30:24;;;;;;;0.10;0.10;;;;;;;9.02;57.68;101999.75;5061478;28;20393;-80
2023/02/01 02:33:18;;;;;;;0.85;0.85;;;;;;;8.96;57.58;102005.91;5051460;28;20111;-80
2023/02/01 02:38:39;;;;;;;0.10;0.10;;;;;;;9.10;57.17;102013.91;5111242;27;20387;-78
2023/02/01 02:54:45;;;;;;;0.10;0.10;;;;;;;9.12;57.40;102020.09;5098321;28;20063;-81
2023/02/01 02:55:30;;;;;;;;;;;;;;;9.30;56.45;102014.00;5089072;28;20418;-81
2023/02/01 03:06:18;;;;;;;0.10;0.10;;;;;;;9.10;56.96;101983.91;5088948;28;20497;-81
2023/02/01 03:08:46;;;;;;;0.20;0.20;;;;;;;9.05;57.05;101976.84;5090098;28;20036;-82
2023/02/01 03:11:14;;;;;;;0.35;0.35;;;;;;;9.02;56.46;101986.53;5094226;28;20107;-83
2023/02/01 03:14:02;;;;;;;1.00;1.00;;;;;;;9.13;56.58;101970.72;5088184;28;20112;-80
2023/02/01 03:22:06;;;;;;;0.20;0.20;;;;;;;9.15;56.52;101992.78;5052749;28;20376;-81
2023/02/01 03:24:51;;;;;;;0.10;0.10;;;;;;;9.05;56.95;101986.56;5034080;28;20092;-80
2023/02/01 03:27:27;;;;;;;0.10;0.10;;;;;;;9.02;57.17;101987.44;5021098;28;20033;-80
2023/02/01 03:30:09;;;;;;;0.10;0.10;;;;;;;9.00;57.29;101986.53;5029844;28;20148;-81
2023/02/01 03:33:13;;;;;;;0.10;0.10;;;;;;;8.85;57.80;101983.81;5028048;28;20022;-78
2023/02/01 03:35:47;;;;;;;0.20;0.20;;;;;;;8.80;58.17;101986.44;5029771;28;20076;-78
2023/02/01 03:41:08;;;;;;;0.10;0.10;;;;;;;8.79;58.10;102012.84;5116336;27;20397;-80
2023/02/01 03:43:43;;;;;;;0.10;0.10;;;;;;;8.84;57.85;101992.63;5090891;28;20042;-81
2023/02/01 03:46:17;;;;;;;0.28;0.28;;;;;;;8.79;58.33;101992.59;5117499;28;20088;-80
2023/02/01 03:48:44;;;;;;;0.10;0.10;;;;;;;8.86;57.51;101985.56;5117034;28;20492;-83
2023/02/01 03:51:12;;;;;;;0.10;0.10;;;;;;;8.85;57.70;101989.13;5103959;28;20036;-82
2023/02/01 03:53:41;;;;;;;0.10;0.10;;;;;;;8.87;57.59;101989.97;5105571;28;20107;-83
2023/02/01 03:56:11;;;;;;;1.38;1.38;;;;;;;8.83;57.52;101983.78;5110466;28;20030;-82
2023/02/01 03:58:37;;;;;;;0.10;0.10;;;;;;;8.87;57.93;101982.06;5100216;28;20051;-83
2023/02/01 04:01:03;;;;;;;1.75;1.65;;;;;;;8.86;57.26;101981.19;5091412;28;20029;-81
2023/02/01 04:03:30;;;;;;;4.47;4.03;;;;;;;8.89;57.73;102014.69;5105955;28;20031;-84
2023/02/01 04:05:56;;;;;;;0.13;0.13;;;;;;;8.81;58.18;102006.72;5102928;28;20028;-80
2023/02/01 04:08:23;;;;;;;0.10;0.10;;;;;;;8.83;57.55;102004.06;5094630;28;20086;-81
2023/02/01 04:10:49;;;;;;;0.10;0.10;;;;;;;8.89;57.44;101981.19;5108588;28;20546;-80
2023/02/01 04:13:15;;;;;;;0.10;0.10;;;;;;;8.86;57.96;102004.97;5105174;28;20020;-83
2023/02/01 04:15:41;;;;;;;0.73;0.25;;;;;;;8.71;57.42;102007.50;5094001;28;20043;-80
2023/02/01 04:18:07;;;;;;;0.55;0.55;;;;;;;8.81;57.18;102001.41;5099500;28;20019;-79
2023/02/01 04:20:34;;;;;;;0.20;0.20;;;;;;;8.86;56.89;101998.78;5113368;28;20024;-78
2023/02/01 04:23:02;;;;;;;0.10;0.10;;;;;;;8.90;57.33;102003.22;5094555;28;20094;-79
2023/02/01 04:25:28;;;;;;;0.10;0.10;;;;;;;9.02;57.08;101997.09;5102293;28;20019;-81
2023/02/01 04:27:54;;;;;;;0.55;0.55;;;;;;;8.95;56.90;101990.91;5100018;28;20485;-82
2023/02/01 04:30:20;;;;;;;0.00;0.00;;;;;;;9.01;56.42;101988.31;5107887;28;20102;-80
2023/02/01 04:32:47;;;;;;;0.10;0.10;;;;;;;8.99;57.08;101997.97;5101141;28;20024;-81
2023/02/01 04:35:13;;;;;;;4.13;1.00;;;;;;;9.04;56.78;101984.78;5098812;28;20019;-80
2023/02/01 04:37:39;;;;;;;0.10;0.10;;;;;;;9.05;56.71;101997.13;5101068;28;20032;-80
2023/02/01 04:40:06;;;;;;;0.10;0.10;;;;;;;8.97;56.53;101965.38;5103918;28;20031;-81
2023/02/01 04:42:32;;;;;;;0.10;0.10;;;;;;;9.01;56.47;101975.09;5108342;28;20027;-78
2023/02/01 04:44:58;;;;;;;0.10;0.10;;;;;;;8.93;57.09;101982.09;5089346;28;20054;-79
2023/02/01 04:47:24;;;;;;;0.10;0.10;;;;;;;8.78;57.72;101997.88;5101922;28;20036;-80
2023/02/01 04:49:50;;;;;;;0.10;0.10;;;;;;;8.80;57.58;101990.81;5089501;28;20028;-80
2023/02/01 04:52:16;;;;;;;0.10;0.10;;;;;;;8.83;57.28;101990.84;5081499;28;20118;-81
2023/02/01 04:54:42;;;;;;;0.43;0.43;;;;;;;8.77;57.87;101981.13;5094150;28;20039;-80
2023/02/01 04:57:08;;;;;;;0.10;0.10;;;;;;;8.73;57.56;101996.09;5087752;28;20077;-82
2023/02/01 04:59:35;;;;;;;0.45;0.43;;;;;;;8.75;57.51;101985.53;5086814;28;20047;-82
2023/02/01 05:02:01;;;;;;;0.10;0.10;;;;;;;8.74;57.46;101987.25;5090105;28;20028;-80
2023/02/01 05:04:27;;;;;;;0.10;0.10;;;;;;;8.72;57.71;101989.03;5093083;28;20032;-80
2023/02/01 05:06:53;;;;;;;0.10;0.10;;;;;;;8.81;57.66;101979.38;5095789;28;20028;-78
2023/02/01 05:09:21;;;;;;;0.10;0.10;;;;;;;8.71;57.74;101971.41;5107862;28;20099;-81
2023/02/01 05:14:33;;;;;;;0.55;0.55;;;;;;;8.67;58.46;101967.00;5088913;28;20047;-79
2023/02/01 05:16:59;;;;;;;0.10;0.10;;;;;;;8.62;58.10;101983.69;5094727;28;20032;-82
2023/02/01 05:19:25;;;;;;;0.10;0.10;;;;;;;8.61;58.39;101973.97;5091079;28;20020;-81
2023/02/01 05:21:51;;;;;;;0.82;0.82;;;;;;;8.50;58.72;101992.38;5089641;28;20110;-81
2023/02/01 05:24:20;;;;;;;0.10;0.10;;;;;;;8.38;58.95;101991.41;5095274;28;20025;-81
2023/02/01 05:26:48;;;;;;;0.10;0.10;;;;;;;8.42;58.53;101997.59;5089627;28;20097;-82
2023/02/01 05:29:16;;;;;;;0.10;0.10;;;;;;;8.46;59.01;101995.84;5089407;28;20097;-81
2023/02/01 05:31:43;;;;;;;0.10;0.10;;;;;;;8.43;58.98;101994.06;5083508;28;20481;-83
2023/02/01 05:34:09;;;;;;;0.28;0.28;;;;;;;8.36;59.12;101995.81;5088352;28;20032;-81
2023/02/01 05:36:39;;;;;;;1.85;1.00;;;;;;;8.34;59.51;102013.38;5085311;28;20096;-83
2023/02/01 05:39:05;;;;;;;0.10;0.10;;;;;;;8.40;59.10;101997.59;5092138;28;20039;-79
2023/02/01 05:41:31;;;;;;;0.45;0.45;;;;;;;8.45;59.44;101996.72;5099920;28;20099;-79
2023/02/01 05:43:57;;;;;;;0.10;0.10;;;;;;;8.48;59.24;101999.44;5093317;28;20078;-80
2023/02/01 05:46:23;;;;;;;0.10;0.10;;;;;;;8.52;59.08;102022.34;5089544;28;20039;-81
2023/02/01 05:48:49;;;;;;;0.10;0.10;;;;;;;8.51;59.40;101999.44;5090252;28;20071;-79
2023/02/01 05:51:15;;;;;;;0.17;0.17;;;;;;;8.45;59.64;101989.69;5089738;28;20028;-81
2023/02/01 05:53:41;;;;;;;0.60;0.60;;;;;;;8.43;59.52;102015.22;5089803;28;20072;-81
2023/02/01 05:56:08;;;;;;;0.10;0.10;;;;;;;8.55;59.45;102001.25;5093592;28;20478;-81
2023/02/01 05:58:34;;;;;;;0.10;0.10;;;;;;;8.54;59.43;102002.13;5094491;28;20020;-80
2023/02/01 06:01:01;;;;;;;0.20;0.20;;;;;;;8.54;59.90;102007.41;5082703;28;20048;-79
2023/02/01 06:03:27;;;;;;;0.10;0.10;;;;;;;8.52;59.14;102001.22;5087965;28;20126;-81
2023/02/01 06:05:54;;;;;;;0.10;0.10;;;;;;;8.42;59.35;102001.13;5086809;28;20081;-80
2023/02/01 06:08:20;;;;;;;0.10;0.10;;;;;;;8.41;59.70;101998.44;5089577;28;20151;-81
2023/02/01 06:10:46;;;;;;;0.10;0.10;;;;;;;8.36;59.49;102009.00;5085944;28;20055;-77
2023/02/01 06:13:12;;;;;;;0.10;0.10;;;;;;;8.51;59.10;102002.09;5090585;28;20348;-81
2023/02/01 06:15:38;;;;;;;0.10;0.10;;;;;;;8.57;59.02;102004.78;5094574;28;20118;-82
2023/02/01 06:18:05;;;;;;;0.10;0.10;;;;;;;8.48;59.24;102020.56;5090234;28;20057;-81
2023/02/01 06:20:31;;;;;;;0.10;0.10;;;;;;;8.46;59.93;102010.00;5095075;28;20026;-81
2023/02/01 06:22:57;;;;;;;0.10;0.10;;;;;;;8.50;59.93;102018.81;5092256;28;20028;-79
2023/02/01 06:25:23;;;;;;;1.30;1.27;;;;;;;8.50;59.65;102026.72;5097411;28;20063;-81
2023/02/01 06:27:49;;;;;;;0.10;0.10;;;;;;;8.66;59.16;102017.16;5091756;28;20035;-79
2023/02/01 06:30:15;;;;;;;0.10;0.10;;;;;;;8.66;59.20;102017.16;5101150;28;20035;-79
2023/02/01 06:32:42;;;;;;;0.20;0.20;;;;;;;8.53;59.72;102018.84;5102950;28;20063;-82
2023/02/01 06:35:15;;;;;;;0.68;0.68;;;;;;;8.68;59.44;102013.66;5088646;28;20517;-81
2023/02/01 06:37:43;;;;;;;0.20;0.20;;;;;;;8.69;59.75;102028.63;5086408;28;20020;-81
2023/02/01 06:40:09;;;;;;;2.72;2.17;;;;;;;8.63;59.80;102022.44;5089361;28;20020;-80
2023/02/01 06:42:35;;;;;;;0.00;0.00;;;;;;;8.63;60.00;102025.94;5089877;28;20116;-80
2023/02/01 06:45:02;;;;;;;0.10;0.10;;;;;;;8.70;59.39;102022.47;5088071;28;20741;-80
2023/02/01 06:47:28;;;;;;;0.10;0.10;;;;;;;8.73;59.21;102006.66;5092315;28;20405;-80
2023/02/01 06:49:54;;;;;;;0.10;0.10;;;;;;;8.77;59.07;102001.38;5087942;28;20127;-80
2023/02/01 06:52:20;;;;;;;0.20;0.20;;;;;;;8.76;58.65;102010.19;5085873;28;20025;-82
2023/02/01 06:54:46;;;;;;;0.10;0.10;;;;;;;8.70;58.71;102011.91;5090085;28;20039;-79
2023/02/01 06:57:13;;;;;;;0.10;0.10;;;;;;;8.70;59.17;102008.41;5086287;28;20024;-82
2023/02/01 06:59:39;;;;;;;0.43;0.43;;;;;;;8.61;58.81;102022.44;5100053;28;20032;-82
2023/02/01 07:02:08;;;;;;;0.10;0.10;;;;;;;8.67;58.98;102006.63;5092260;28;20028;-81
2023/02/01 07:04:34;;;;;;;0.10;0.10;;;;;;;8.74;58.34;102007.53;5088495;28;20535;-81
2023/02/01 07:07:00;;;;;;;0.20;0.20;;;;;;;8.48;59.22;102007.38;5081317;28;20036;-81
2023/02/01 07:09:26;;;;;;;0.40;0.40;;;;;;;8.59;59.01;102016.25;5088154;28;20024;-80
2023/02/01 07:11:52;;;;;;;0.40;0.40;;;;;;;8.58;59.02;102044.44;5090445;28;20049;-80
2023/02/01 07:14:19;;;;;;;0.20;0.20;;;;;;;8.54;59.35;102025.91;5089173;28;20059;-80
2023/02/01 07:16:45;;;;;;;0.08;0.08;;;;;;;8.66;58.81;102031.28;5083628;28;20401;-80
2023/02/01 07:19:11;;;;;;;0.38;0.38;;;;;;;8.50;58.79;102026.72;5086719;28;20504;-81
2023/02/01 07:21:40;;;;;;;0.40;0.40;;;;;;;8.63;59.06;102019.78;5081731;28;20032;-80
2023/02/01 07:24:08;;;;;;;0.10;0.10;;;;;;;8.62;59.24;102018.88;5086099;28;20446;-80
2023/02/01 07:26:35;;;;;;;0.10;0.10;;;;;;;8.53;59.29;102016.19;5089008;28;20162;-81
2023/02/01 07:29:01;;;;;;;0.10;0.10;;;;;;;8.54;59.16;102031.19;5087588;28;20099;-80
2023/02/01 07:31:28;;;;;;;0.35;0.35;;;;;;;8.53;59.20;102024.13;5086452;28;20027;-80
2023/02/01 07:33:56;;;;;;;0.10;0.10;;;;;;;8.56;59.74;102018.84;5082501;28;20583;-80
2023/02/01 07:36:22;;;;;;;0.10;0.10;;;;;;;8.52;59.91;102025.91;5089473;28;20059;-82
2023/02/01 07:38:49;;;;;;;0.17;0.17;;;;;;;8.54;59.53;102015.34;5084982;28;20996;-79
2023/02/01 07:41:16;;;;;;;0.10;0.10;;;;;;;8.52;59.51;102027.63;5088844;28;20519;-80
2023/02/01 07:43:42;;;;;;;0.30;0.30;;;;;;;8.56;59.36;102024.13;5086275;28;20501;-81
2023/02/01 07:46:09;;;;;;;2.28;1.95;;;;;;;8.53;59.89;102029.41;5088301;28;20035;-82
2023/02/01 07:48:35;;;;;;;0.10;0.10;;;;;;;8.64;59.67;102033.00;5087897;28;20024;-81
2023/02/01 07:51:04;;;;;;;0.40;0.40;;;;;;;8.58;59.67;102038.25;5085354;28;20486;-81
2023/02/01 07:53:32;;;;;;;0.10;0.10;;;;;;;8.66;59.71;102046.22;5092999;28;20024;-80
2023/02/01 07:55:59;;;;;;;0.20;0.20;;;;;;;8.65;59.82;102041.81;5098273;28;20033;-81
2023/02/01 07:58:26;;;;;;;0.10;0.10;;;;;;;8.62;59.52;102053.25;5086712;28;20112;-81
2023/02/01 08:01:24;;;;;;;0.20;0.20;;;;;;;8.64;59.58;102046.22;5091560;28;20031;-82
2023/02/01 08:03:39;;;;;;;0.30;0.30;;;;;;;8.66;59.51;102049.75;5092897;28;20040;-83
2023/02/01 08:06:06;;;;;;;0.10;0.10;;;;;;;8.64;60.35;102046.22;5088743;28;20032;-80
2023/02/01 08:08:32;;;;;;;0.10;0.10;;;;;;;8.65;59.73;102049.72;5090636;28;20556;-82
2023/02/01 08:11:00;;;;;;;0.10;0.10;;;;;;;8.58;60.09;102048.81;5083297;28;20493;-79
2023/02/01 08:13:27;;;;;;;0.32;0.32;;;;;;;8.56;60.07;102067.31;5079907;28;20020;-82
2023/02/01 08:15:57;;;;;;;0.10;0.10;;;;;;;8.54;60.33;102065.53;5083067;28;20040;-79
2023/02/01 08:18:23;;;;;;;0.10;0.10;;;;;;;8.69;59.69;102052.41;5080972;28;20025;-79
2023/02/01 08:20:50;;;;;;;0.10;0.10;;;;;;;8.74;59.49;102034.84;5075908;28;20055;-79
2023/02/01 08:23:17;;;;;;;0.10;0.10;;;;;;;8.76;59.68;102026.03;5076502;28;20029;-81
2023/02/01 08:25:43;;;;;;;0.10;0.10;;;;;;;8.75;59.77;102030.44;5075715;28;20093;-79
2023/02/01 08:28:10;;;;;;;0.10;0.10;;;;;;;8.87;59.39;102029.63;5078739;28;20417;-79
2023/02/01 08:30:38;;;;;;;0.10;0.10;;;;;;;8.84;59.83;102025.22;5085687;28;20021;-79
2023/02/01 08:33:06;;;;;;;13.15;1.45;;;;;;;8.74;59.93;102029.53;5088464;28;20036;-79
2023/02/01 08:35:34;;;;;;;0.10;0.10;;;;;;;8.79;59.68;102010.22;5078982;28;20118;-78
2023/02/01 08:38:00;;;;;;;0.00;0.00;;;;;;;8.79;59.84;102007.56;5086786;28;20059;-78
2023/02/01 08:40:30;;;;;;;0.10;0.10;;;;;;;9.00;59.84;102020.91;5085366;28;20020;-81
2023/02/01 08:42:57;;;;;;;0.30;0.30;;;;;;;8.92;59.51;102003.22;5076882;28;20040;-79
2023/02/01 08:45:25;;;;;;;0.55;0.55;;;;;;;8.96;59.32;102016.47;5083207;28;20044;-79
2023/02/01 08:47:52;;;;;;;0.10;0.10;;;;;;;9.08;59.29;102010.34;5081982;28;20026;-81
2023/02/01 08:50:19;;;;;;;0.52;0.52;;;;;;;9.06;59.15;102015.66;5078389;28;20016;-81
2023/02/01 08:52:46;;;;;;;0.10;0.10;;;;;;;9.13;58.84;102021.84;5079585;28;20028;-81
2023/02/01 08:55:13;;;;;;;0.20;0.20;;;;;;;9.10;58.80;102031.50;5082910;28;20029;-78
2023/02/01 08:57:40;;;;;;;0.10;0.10;;;;;;;9.22;59.16;102005.13;5082047;28;20873;-80
2023/02/01 09:00:10;;;;;;;0.10;0.10;;;;;;;9.23;58.94;102004.25;5079195;28;20036;-80
2023/02/01 09:02:36;;;;;;;0.10;0.10;;;;;;;9.16;58.90;102013.03;5089936;28;20024;-79
2023/02/01 09:05:03;;;;;;;0.65;0.65;;;;;;;9.20;58.89;102006.91;5079429;28;20107;-80
2023/02/01 09:07:30;;;;;;;0.10;0.10;;;;;;;9.38;58.64;101999.03;5084907;28;20593;-79
2023/02/01 09:09:59;;;;;;;0.10;0.10;;;;;;;9.31;59.02;102001.63;5080448;28;20029;-80
2023/02/01 09:12:26;;;;;;;0.10;0.10;;;;;;;9.35;58.54;102006.97;5077483;28;20113;-79
2023/02/01 09:14:52;;;;;;;0.10;0.10;;;;;;;9.57;58.47;101991.16;5075456;28;20063;-79
2023/02/01 09:17:18;;;;;;;1.10;1.10;;;;;;;9.60;58.53;101985.88;5090819;28;20016;-77
2023/02/01 09:19:44;;;;;;;0.10;0.10;;;;;;;9.75;58.03;101979.72;5101931;28;20012;-80
2023/02/01 09:22:11;;;;;;;0.10;0.10;;;;;;;9.53;58.21;101984.09;5088018;28;20016;-80
2023/02/01 09:24:37;;;;;;;0.10;0.10;;;;;;;9.61;58.15;101995.56;5081724;28;20106;-81
2023/02/01 09:27:03;;;;;;;0.10;0.10;;;;;;;9.68;58.09;101994.72;5071614;28;20479;-80
2023/02/01 09:29:29;;;;;;;0.10;0.10;;;;;;;9.55;58.21;102008.78;5077061;28;20016;-80
2023/02/01 09:31:55;;;;;;;0.10;0.10;;;;;;;9.60;57.83;101998.22;5080660;28;20034;-81
2023/02/01 09:34:22;;;;;;;0.20;0.20;;;;;;;9.57;57.33;102007.03;5077696;28;20027;-79
2023/02/01 09:36:48;;;;;;;0.10;0.10;;;;;;;9.77;57.48;102014.13;5073888;28;20040;-77
2023/02/01 09:39:14;;;;;;;0.00;0.00;;;;;;;9.66;57.19;102001.75;5083979;28;20028;-81
2023/02/01 09:42:12;;;;;;;1.85;0.73;;;;;;;9.83;57.44;102003.56;5067965;28;20127;-79
2023/02/01 09:45:04;;;;;;;0.08;0.08;;;;;;;9.83;57.25;102006.19;5083275;28;20035;-83
2023/02/01 09:47:31;;;;;;;0.10;0.10;;;;;;;9.80;56.72;102008.84;5071658;28;20389;-82
2023/02/01 09:50:14;;;;;;;0.10;0.10;;;;;;;9.91;57.03;102007.09;5073979;28;20012;-82
2023/02/01 09:52:50;;;;;;;0.10;0.10;;;;;;;9.94;56.86;102019.47;5070863;28;20028;-81
2023/02/01 09:55:27;;;;;;;0.15;0.15;;;;;;;9.92;56.70;102019.47;5075407;28;20386;-81
2023/02/01 09:58:01;;;;;;;0.10;0.10;;;;;;;9.89;56.85;102024.75;5075540;28;20032;-82
2023/02/01 10:00:33;;;;;;;0.10;0.10;;;;;;;9.88;56.89;102017.69;5078254;28;20028;-82
2023/02/01 10:03:00;;;;;;;1.27;1.27;;;;;;;9.68;57.20;102012.34;5082421;28;20071;-82
2023/02/01 10:05:48;;;;;;;0.17;0.17;;;;;;;9.71;57.01;102005.28;5090844;28;20035;-82
2023/02/01 10:17:31;;;;;;;0.17;0.17;;;;;;;9.52;57.55;102022.00;5085242;27;20390;-81
2023/02/01 10:22:42;;;;;;;0.77;0.77;;;;;;;9.57;56.88;102011.44;5092826;27;1186407;-80
2023/02/01 10:27:46;;;;;;;0.10;0.10;;;;;;;9.63;56.79;102017.66;5100697;27;20391;-78
2023/02/01 10:32:56;;;;;;;9.25;1.95;;;;;;;9.60;57.01;102001.75;5097708;27;1199504;-82
2023/02/01 10:35:31;;;;;;;0.15;0.15;;;;;;;9.58;57.23;101989.41;5128580;27;20118;-83
2023/02/01 10:38:02;;;;;;;0.10;0.10;;;;;;;9.82;56.50;101999.13;5144349;27;20012;-82
2023/02/01 10:40:28;;;;;;;0.10;0.10;;;;;;;9.78;56.79;102010.59;5142340;28;20023;-79
2023/02/01 10:42:59;;;;;;;0.10;0.10;;;;;;;9.80;57.07;102011.50;5132914;27;20040;-80
2023/02/01 10:45:27;;;;;;;0.10;0.10;;;;;;;9.83;56.83;102008.84;5124355;28;20116;-81
2023/02/01 10:47:56;;;;;;;0.10;0.10;;;;;;;9.85;56.90;102001.81;5126795;27;20031;-82
2023/02/01 10:53:11;;;;;;;0.10;0.10;;;;;;;10.03;56.82;102004.47;5112243;27;20763;-79
2023/02/01 10:55:41;;;;;;;0.10;0.10;;;;;;;9.99;56.90;101999.16;5101003;28;20037;-80
2023/02/01 10:58:17;;;;;;;0.10;0.10;;;;;;;10.03;56.37;101999.19;5101214;28;20050;-80
2023/02/01 11:00:48;;;;;;;0.10;0.10;;;;;;;10.07;56.38;102015.06;5090603;27;20563;-80
2023/02/01 11:03:48;;;;;;;0.10;0.10;;;;;;;10.09;56.36;102005.34;5105135;27;20050;-81
2023/02/01 11:06:25;;;;;;;0.10;0.10;;;;;;;10.07;56.37;101999.16;5095787;28;20024;-81
2023/02/01 11:08:56;;;;;;;0.28;0.28;;;;;;;10.04;56.12;102002.69;5102403;28;20031;-80
2023/02/01 11:11:22;;;;;;;0.35;0.35;;;;;;;9.98;56.23;101997.41;5090022;28;20020;-81
2023/02/01 11:13:54;;;;;;;0.80;0.80;;;;;;;9.85;56.32;102045.03;5085981;28;20028;-80
2023/02/01 11:16:21;;;;;;;0.20;0.20;;;;;;;9.72;56.23;102011.50;5087344;28;20020;-78
2023/02/01 11:18:55;;;;;;;0.13;0.13;;;;;;;9.78;56.38;101998.28;5091235;28;20403;-80
2023/02/01 11:21:22;;;;;;;0.20;0.20;;;;;;;9.88;56.42;102000.03;5094883;28;20045;-80
2023/02/01 11:23:48;;;;;;;1.75;1.65;;;;;;;9.86;56.19;102009.75;5091670;28;20507;-78
2023/02/01 11:26:23;;;;;;;0.20;0.20;;;;;;;9.83;56.48;102000.91;5097169;28;20044;-81
2023/02/01 11:31:36;;;;;;;0.15;0.15;;;;;;;9.87;56.29;101992.97;5122717;27;20381;-83
2023/02/01 11:34:13;;;;;;;0.32;0.32;;;;;;;10.11;55.97;101987.72;5092539;28;20021;-83
2023/02/01 11:36:40;;;;;;;0.00;0.00;;;;;;;9.86;56.53;102017.69;5094011;28;20198;-83
2023/02/01 11:44:42;;;;;;;0.65;0.65;;;;;;;10.28;55.97;101996.53;5048739;28;20388;-79
2023/02/01 11:50:01;;;;;;;0.17;0.17;;;;;;;10.30;55.91;101997.41;5102393;27;1213484;-80
2023/02/01 11:58:00;;;;;;;0.10;0.10;;;;;;;10.30;55.34;101983.28;5098126;27;20113;-81
2023/02/01 12:00:42;;;;;;;0.10;0.10;;;;;;;10.47;55.26;101975.38;5084893;28;20110;-79
2023/02/01 12:09:17;;;;;;;0.10;0.10;;;;;;;10.32;55.03;101966.50;5061012;28;20787;-79
2023/02/01 12:17:56;;;;;;;0.10;0.10;;;;;;;10.27;55.61;101962.97;5093122;27;20389;-78
2023/02/01 12:23:52;;;;;;;0.10;0.10;;;;;;;10.24;55.77;101962.09;5108512;27;20364;-78
2023/02/01 12:32:03;;;;;;;4.93;1.23;;;;;;;10.24;56.21;101973.56;5094339;27;1224530;-82
2023/02/01 12:34:57;;;;;;;0.10;0.10;;;;;;;10.32;55.93;101960.34;5121323;28;20032;-82
2023/02/01 12:40:53;;;;;;;0.10;0.10;;;;;;;10.35;55.85;101940.03;5099186;27;1280082;-79
2023/02/01 12:43:25;;;;;;;0.10;0.10;;;;;;;10.51;55.63;101955.91;5118086;28;20386;-82
2023/02/01 12:46:03;;;;;;;0.70;0.70;;;;;;;10.52;55.71;101952.41;5131234;27;20034;-77
2023/02/01 12:48:47;;;;;;;0.10;0.10;;;;;;;10.46;55.76;101978.91;5137884;27;20026;-79
2023/02/01 12:51:18;;;;;;;0.10;0.10;;;;;;;10.52;55.52;101947.09;5125158;28;20026;-79
2023/02/01 12:53:52;;;;;;;0.10;0.10;;;;;;;10.51;55.49;101961.22;5130917;27;20028;-79
2023/02/01 12:56:30;;;;;;;0.10;0.10;;;;;;;10.46;55.61;101955.06;5122631;27;20474;-80
2023/02/01 12:59:01;;;;;;;0.10;0.10;;;;;;;10.55;55.49;101936.47;5126624;28;20076;-81
2023/02/01 13:01:35;;;;;;;0.63;0.63;;;;;;;10.60;55.25;101949.72;5129682;27;20023;-78
2023/02/01 13:04:25;;;;;;;0.10;0.10;;;;;;;10.59;55.03;101946.19;5129271;27;20108;-80
2023/02/01 13:07:01;;;;;;;4.13;3.45;;;;;;;10.66;54.99;101939.09;5131292;27;20508;-81
2023/02/01 13:09:51;;;;;;;0.73;0.30;;;;;;;10.65;55.16;101932.94;5130227;27;20027;-79
2023/02/01 13:12:23;;;;;;;0.13;0.13;;;;;;;10.57;55.67;101945.31;5123575;28;20059;-80
2023/02/01 13:14:56;;;;;;;0.20;0.20;;;;;;;10.54;55.78;101960.34;5121862;27;20032;-80
2023/02/01 13:17:28;;;;;;;0.30;0.30;;;;;;;10.59;55.65;101958.56;5110329;28;20024;-81
2023/02/01 13:19:59;;;;;;;0.13;0.13;;;;;;;10.67;55.42;101943.53;5111443;28;20069;-80
2023/02/01 13:22:35;;;;;;;0.10;0.10;;;;;;;10.62;55.28;101926.75;5111918;28;20030;-80
2023/02/01 13:25:11;;;;;;;0.10;0.10;;;;;;;10.62;55.36;101943.53;5109622;28;20114;-81